Аэропорт: Кокшетау. Кокшетау

ICAO: UACK

METAR:
2018/07/22 11:30
UACK 221130Z 02009MPS CAVOK 16/04 Q1012 R02/010070 NOSIG RMK QFE735/0980
METAR:
2014/11/02 12:00
TAF UACK 021140Z 0212/0221 CNL